sensor_id;sensor_type;location;lat;lon;timestamp;pressure;altitude;pressure_sealevel;temperature;humidity
64189;BME280;50493;50.970;10.082;2022-12-17T00:00:48;99772.31;;;-2.31;59.22
64189;BME280;50493;50.970;10.082;2022-12-17T00:03:33;99775.91;;;-2.26;58.97
64189;BME280;50493;50.970;10.082;2022-12-17T00:06:18;99776.91;;;-2.23;60.16
64189;BME280;50493;50.970;10.082;2022-12-17T00:09:03;99780.75;;;-2.34;60.99
64189;BME280;50493;50.970;10.082;2022-12-17T00:11:48;99782.66;;;-2.28;59.44
64189;BME280;50493;50.970;10.082;2022-12-17T00:14:32;99790.75;;;-2.42;59.84
64189;BME280;50493;50.970;10.082;2022-12-17T00:17:16;99787.34;;;-2.41;59.80
64189;BME280;50493;50.970;10.082;2022-12-17T00:20:00;99794.75;;;-2.24;59.93
64189;BME280;50493;50.970;10.082;2022-12-17T00:22:45;99795.25;;;-2.35;59.23
64189;BME280;50493;50.970;10.082;2022-12-17T00:25:30;99797.06;;;-2.55;60.03
64189;BME280;50493;50.970;10.082;2022-12-17T00:28:14;99810.41;;;-2.63;60.54
64189;BME280;50493;50.970;10.082;2022-12-17T00:30:58;99801.00;;;-2.86;61.11
64189;BME280;50493;50.970;10.082;2022-12-17T00:33:42;99803.19;;;-2.95;61.46
64189;BME280;50493;50.970;10.082;2022-12-17T00:36:26;99810.38;;;-2.86;60.84
64189;BME280;50493;50.970;10.082;2022-12-17T00:39:10;99811.34;;;-2.83;60.64
64189;BME280;50493;50.970;10.082;2022-12-17T00:41:56;99812.41;;;-3.00;61.10
64189;BME280;50493;50.970;10.082;2022-12-17T00:44:40;99814.53;;;-2.67;60.28
64189;BME280;50493;50.970;10.082;2022-12-17T00:47:24;99822.69;;;-2.98;61.43
64189;BME280;50493;50.970;10.082;2022-12-17T00:50:08;99824.31;;;-3.22;62.64
64189;BME280;50493;50.970;10.082;2022-12-17T00:52:53;99827.66;;;-3.02;61.55
64189;BME280;50493;50.970;10.082;2022-12-17T00:55:37;99835.28;;;-2.82;61.38
64189;BME280;50493;50.970;10.082;2022-12-17T00:58:23;99831.22;;;-2.77;61.06
64189;BME280;50493;50.970;10.082;2022-12-17T01:01:06;99841.22;;;-2.60;59.61
64189;BME280;50493;50.970;10.082;2022-12-17T01:03:50;99837.50;;;-2.90;61.37
64189;BME280;50493;50.970;10.082;2022-12-17T01:06:34;99844.00;;;-2.98;61.88
64189;BME280;50493;50.970;10.082;2022-12-17T01:09:18;99845.44;;;-3.05;62.01
64189;BME280;50493;50.970;10.082;2022-12-17T01:12:03;99835.81;;;-3.31;62.66
64189;BME280;50493;50.970;10.082;2022-12-17T01:14:48;99840.13;;;-3.30;62.52
64189;BME280;50493;50.970;10.082;2022-12-17T01:17:32;99847.41;;;-3.20;62.22
64189;BME280;50493;50.970;10.082;2022-12-17T01:20:16;99847.63;;;-3.14;61.96
64189;BME280;50493;50.970;10.082;2022-12-17T01:23:00;99846.63;;;-3.39;63.11
64189;BME280;50493;50.970;10.082;2022-12-17T01:25:51;99848.88;;;-3.25;62.53
64189;BME280;50493;50.970;10.082;2022-12-17T01:28:35;99855.59;;;-3.27;62.55
64189;BME280;50493;50.970;10.082;2022-12-17T01:31:20;99854.22;;;-3.19;62.23
64189;BME280;50493;50.970;10.082;2022-12-17T01:34:05;99860.69;;;-3.08;61.97
64189;BME280;50493;50.970;10.082;2022-12-17T01:36:49;99863.25;;;-3.08;61.89
64189;BME280;50493;50.970;10.082;2022-12-17T01:39:37;99861.47;;;-3.09;61.61
64189;BME280;50493;50.970;10.082;2022-12-17T01:42:21;99862.69;;;-3.22;61.48
64189;BME280;50493;50.970;10.082;2022-12-17T01:45:10;99866.97;;;-3.21;61.67
64189;BME280;50493;50.970;10.082;2022-12-17T01:47:58;99869.44;;;-3.22;61.86
64189;BME280;50493;50.970;10.082;2022-12-17T01:50:44;99870.53;;;-3.37;62.31
64189;BME280;50493;50.970;10.082;2022-12-17T01:53:32;99874.56;;;-3.22;61.80
64189;BME280;50493;50.970;10.082;2022-12-17T01:56:18;99875.31;;;-3.46;62.83
64189;BME280;50493;50.970;10.082;2022-12-17T01:59:03;99878.44;;;-3.52;63.31
64189;BME280;50493;50.970;10.082;2022-12-17T02:01:49;99886.19;;;-3.70;63.92
64189;BME280;50493;50.970;10.082;2022-12-17T02:04:34;99882.72;;;-3.72;63.73
64189;BME280;50493;50.970;10.082;2022-12-17T02:07:38;99889.94;;;-3.61;63.36
64189;BME280;50493;50.970;10.082;2022-12-17T02:10:33;99890.16;;;-3.76;64.06
64189;BME280;50493;50.970;10.082;2022-12-17T02:13:22;99893.84;;;-3.70;63.60
64189;BME280;50493;50.970;10.082;2022-12-17T02:16:13;99893.59;;;-3.56;63.79
64189;BME280;50493;50.970;10.082;2022-12-17T02:19:03;99900.31;;;-3.58;63.90
64189;BME280;50493;50.970;10.082;2022-12-17T02:21:54;99904.88;;;-3.71;63.67
64189;BME280;50493;50.970;10.082;2022-12-17T02:24:45;99909.88;;;-3.74;64.18
64189;BME280;50493;50.970;10.082;2022-12-17T02:27:34;99910.81;;;-3.52;63.80
64189;BME280;50493;50.970;10.082;2022-12-17T02:30:18;99913.91;;;-3.59;63.52
64189;BME280;50493;50.970;10.082;2022-12-17T02:33:03;99916.59;;;-3.56;63.13
64189;BME280;50493;50.970;10.082;2022-12-17T02:35:52;99917.22;;;-3.99;64.94
64189;BME280;50493;50.970;10.082;2022-12-17T02:38:36;99917.84;;;-4.23;65.92
64189;BME280;50493;50.970;10.082;2022-12-17T02:41:23;99926.34;;;-3.87;64.72
64189;BME280;50493;50.970;10.082;2022-12-17T02:44:10;99923.66;;;-4.08;64.53
64189;BME280;50493;50.970;10.082;2022-12-17T02:46:56;99916.22;;;-4.41;66.23
64189;BME280;50493;50.970;10.082;2022-12-17T02:49:41;99918.66;;;-4.78;68.79
64189;BME280;50493;50.970;10.082;2022-12-17T02:52:25;99918.91;;;-4.38;66.92
64189;BME280;50493;50.970;10.082;2022-12-17T02:55:10;99916.31;;;-4.56;67.73
64189;BME280;50493;50.970;10.082;2022-12-17T02:57:55;99924.56;;;-4.61;67.36
64189;BME280;50493;50.970;10.082;2022-12-17T03:00:40;99923.97;;;-4.56;67.80
64189;BME280;50493;50.970;10.082;2022-12-17T03:03:24;99933.56;;;-4.51;67.33
64189;BME280;50493;50.970;10.082;2022-12-17T03:06:08;99937.19;;;-4.64;67.49
64189;BME280;50493;50.970;10.082;2022-12-17T03:08:52;99932.16;;;-4.63;67.29
64189;BME280;50493;50.970;10.082;2022-12-17T03:11:36;99934.19;;;-4.74;67.89
64189;BME280;50493;50.970;10.082;2022-12-17T03:14:20;99937.69;;;-4.72;68.15
64189;BME280;50493;50.970;10.082;2022-12-17T03:17:06;99934.97;;;-4.93;69.25
64189;BME280;50493;50.970;10.082;2022-12-17T03:19:50;99939.28;;;-4.92;69.09
64189;BME280;50493;50.970;10.082;2022-12-17T03:22:34;99950.25;;;-4.58;68.08
64189;BME280;50493;50.970;10.082;2022-12-17T03:25:18;99960.53;;;-4.57;67.89
64189;BME280;50493;50.970;10.082;2022-12-17T03:28:03;99957.09;;;-4.57;67.19
64189;BME280;50493;50.970;10.082;2022-12-17T03:30:47;99950.41;;;-4.19;66.51
64189;BME280;50493;50.970;10.082;2022-12-17T03:33:33;99958.84;;;-4.38;66.92
64189;BME280;50493;50.970;10.082;2022-12-17T03:36:17;99954.69;;;-4.18;65.80
64189;BME280;50493;50.970;10.082;2022-12-17T03:39:01;99961.00;;;-4.64;67.27
64189;BME280;50493;50.970;10.082;2022-12-17T03:41:45;99961.53;;;-4.53;67.29
64189;BME280;50493;50.970;10.082;2022-12-17T03:44:29;99972.53;;;-4.72;67.98
64189;BME280;50493;50.970;10.082;2022-12-17T03:47:12;99967.25;;;-4.93;68.87
64189;BME280;50493;50.970;10.082;2022-12-17T03:49:58;99968.38;;;-5.05;69.02
64189;BME280;50493;50.970;10.082;2022-12-17T03:52:42;99972.03;;;-4.99;69.58
64189;BME280;50493;50.970;10.082;2022-12-17T03:55:26;99967.25;;;-4.93;69.04
64189;BME280;50493;50.970;10.082;2022-12-17T03:58:10;99975.91;;;-4.73;68.23
64189;BME280;50493;50.970;10.082;2022-12-17T04:00:54;99971.69;;;-4.89;69.01
64189;BME280;50493;50.970;10.082;2022-12-17T04:03:38;99977.75;;;-4.87;68.96
64189;BME280;50493;50.970;10.082;2022-12-17T04:06:23;99975.38;;;-5.00;68.97
64189;BME280;50493;50.970;10.082;2022-12-17T04:09:07;99976.34;;;-4.98;68.86
64189;BME280;50493;50.970;10.082;2022-12-17T04:11:51;99989.13;;;-4.80;68.11
64189;BME280;50493;50.970;10.082;2022-12-17T04:14:35;99983.31;;;-4.78;68.34
64189;BME280;50493;50.970;10.082;2022-12-17T04:17:20;99985.97;;;-4.58;66.96
64189;BME280;50493;50.970;10.082;2022-12-17T04:20:05;99987.69;;;-4.75;68.15
64189;BME280;50493;50.970;10.082;2022-12-17T04:22:50;99990.16;;;-4.77;67.93
64189;BME280;50493;50.970;10.082;2022-12-17T04:25:34;99985.06;;;-4.59;67.53
64189;BME280;50493;50.970;10.082;2022-12-17T04:28:18;99991.56;;;-4.65;67.52
64189;BME280;50493;50.970;10.082;2022-12-17T04:31:02;99993.81;;;-4.72;67.73
64189;BME280;50493;50.970;10.082;2022-12-17T04:33:46;99994.53;;;-4.22;65.80
64189;BME280;50493;50.970;10.082;2022-12-17T04:36:30;99996.50;;;-4.68;68.02
64189;BME280;50493;50.970;10.082;2022-12-17T04:39:15;100004.78;;;-4.91;68.71
64189;BME280;50493;50.970;10.082;2022-12-17T04:42:00;100016.31;;;-4.81;68.75
64189;BME280;50493;50.970;10.082;2022-12-17T04:44:44;100004.38;;;-4.98;69.46
64189;BME280;50493;50.970;10.082;2022-12-17T04:47:28;100015.22;;;-5.03;69.05
64189;BME280;50493;50.970;10.082;2022-12-17T04:50:12;100007.06;;;-4.79;68.94
64189;BME280;50493;50.970;10.082;2022-12-17T04:52:59;100007.31;;;-4.56;67.33
64189;BME280;50493;50.970;10.082;2022-12-17T04:55:45;100006.81;;;-4.49;66.90
64189;BME280;50493;50.970;10.082;2022-12-17T04:58:29;100009.59;;;-4.62;67.79
64189;BME280;50493;50.970;10.082;2022-12-17T05:01:13;100009.59;;;-4.44;66.52
64189;BME280;50493;50.970;10.082;2022-12-17T05:03:57;100014.41;;;-4.50;66.63
64189;BME280;50493;50.970;10.082;2022-12-17T05:06:41;100014.56;;;-4.29;65.94
64189;BME280;50493;50.970;10.082;2022-12-17T05:09:25;100017.94;;;-3.94;65.33
64189;BME280;50493;50.970;10.082;2022-12-17T05:12:10;100017.34;;;-4.25;66.25
64189;BME280;50493;50.970;10.082;2022-12-17T05:14:55;100026.81;;;-4.58;66.83
64189;BME280;50493;50.970;10.082;2022-12-17T05:17:39;100034.47;;;-4.75;67.57
64189;BME280;50493;50.970;10.082;2022-12-17T05:20:23;100026.03;;;-4.21;66.09
64189;BME280;50493;50.970;10.082;2022-12-17T05:23:07;100036.91;;;-4.25;65.48
64189;BME280;50493;50.970;10.082;2022-12-17T05:25:56;100037.63;;;-4.10;65.82
64189;BME280;50493;50.970;10.082;2022-12-17T05:28:46;100035.78;;;-4.12;65.31
64189;BME280;50493;50.970;10.082;2022-12-17T05:31:30;100053.00;;;-4.26;65.78
64189;BME280;50493;50.970;10.082;2022-12-17T05:34:15;100050.31;;;-4.47;66.78
64189;BME280;50493;50.970;10.082;2022-12-17T05:36:59;100053.53;;;-3.79;64.47
64189;BME280;50493;50.970;10.082;2022-12-17T05:39:43;100053.66;;;-3.58;62.70
64189;BME280;50493;50.970;10.082;2022-12-17T05:42:27;100053.44;;;-4.70;68.06
64189;BME280;50493;50.970;10.082;2022-12-17T05:45:13;100062.56;;;-4.40;68.07
64189;BME280;50493;50.970;10.082;2022-12-17T05:47:57;100057.03;;;-4.66;67.80
64189;BME280;50493;50.970;10.082;2022-12-17T05:50:41;100053.78;;;-4.11;67.53
64189;BME280;50493;50.970;10.082;2022-12-17T05:53:26;100054.13;;;-4.03;67.25
64189;BME280;50493;50.970;10.082;2022-12-17T05:56:09;100057.28;;;-3.53;63.95
64189;BME280;50493;50.970;10.082;2022-12-17T05:58:54;100066.53;;;-4.11;65.34
64189;BME280;50493;50.970;10.082;2022-12-17T06:01:39;100070.53;;;-4.16;66.41
64189;BME280;50493;50.970;10.082;2022-12-17T06:04:23;100070.63;;;-3.96;65.07
64189;BME280;50493;50.970;10.082;2022-12-17T06:07:07;100074.97;;;-4.30;66.76
64189;BME280;50493;50.970;10.082;2022-12-17T06:09:52;100071.94;;;-4.05;65.26
64189;BME280;50493;50.970;10.082;2022-12-17T06:12:36;100073.47;;;-3.35;62.64
64189;BME280;50493;50.970;10.082;2022-12-17T06:15:20;100084.31;;;-3.58;63.63
64189;BME280;50493;50.970;10.082;2022-12-17T06:18:05;100083.91;;;-3.86;64.05
64189;BME280;50493;50.970;10.082;2022-12-17T06:20:51;100088.28;;;-4.01;66.24
64189;BME280;50493;50.970;10.082;2022-12-17T06:23:35;100098.81;;;-4.97;70.11
64189;BME280;50493;50.970;10.082;2022-12-17T06:26:19;100102.06;;;-4.83;70.95
64189;BME280;50493;50.970;10.082;2022-12-17T06:29:04;100094.69;;;-4.44;68.39
64189;BME280;50493;50.970;10.082;2022-12-17T06:31:47;100099.22;;;-4.04;66.61
64189;BME280;50493;50.970;10.082;2022-12-17T06:34:33;100102.81;;;-3.64;65.35
64189;BME280;50493;50.970;10.082;2022-12-17T06:37:17;100104.06;;;-3.74;65.10
64189;BME280;50493;50.970;10.082;2022-12-17T06:40:02;100109.16;;;-3.38;64.12
64189;BME280;50493;50.970;10.082;2022-12-17T06:42:51;100109.25;;;-3.54;64.24
64189;BME280;50493;50.970;10.082;2022-12-17T06:45:36;100117.50;;;-3.22;63.21
64189;BME280;50493;50.970;10.082;2022-12-17T06:48:19;100122.44;;;-3.07;62.49
64189;BME280;50493;50.970;10.082;2022-12-17T06:51:04;100124.63;;;-2.97;61.79
64189;BME280;50493;50.970;10.082;2022-12-17T06:53:49;100121.56;;;-2.88;61.91
64189;BME280;50493;50.970;10.082;2022-12-17T06:56:33;100122.53;;;-2.86;61.03
64189;BME280;50493;50.970;10.082;2022-12-17T06:59:17;100136.25;;;-3.04;61.72
64189;BME280;50493;50.970;10.082;2022-12-17T07:02:00;100151.41;;;-5.30;70.66
64189;BME280;50493;50.970;10.082;2022-12-17T07:04:44;100140.97;;;-4.87;71.67
64189;BME280;50493;50.970;10.082;2022-12-17T07:07:29;100148.59;;;-4.21;67.87
64189;BME280;50493;50.970;10.082;2022-12-17T07:10:14;100146.88;;;-4.55;69.50
64189;BME280;50493;50.970;10.082;2022-12-17T07:13:03;100152.28;;;-3.80;66.56
64189;BME280;50493;50.970;10.082;2022-12-17T07:15:47;100168.91;;;-4.41;66.70
64189;BME280;50493;50.970;10.082;2022-12-17T07:18:31;100168.56;;;-4.47;68.42
64189;BME280;50493;50.970;10.082;2022-12-17T07:21:16;100164.66;;;-3.89;67.00
64189;BME280;50493;50.970;10.082;2022-12-17T07:24:01;100160.72;;;-3.64;64.52
64189;BME280;50493;50.970;10.082;2022-12-17T07:26:45;100160.78;;;-3.45;64.24
64189;BME280;50493;50.970;10.082;2022-12-17T07:29:29;100165.66;;;-3.31;63.56
64189;BME280;50493;50.970;10.082;2022-12-17T07:32:13;100164.44;;;-3.40;62.74
64189;BME280;50493;50.970;10.082;2022-12-17T07:34:57;100169.31;;;-3.26;62.57
64189;BME280;50493;50.970;10.082;2022-12-17T07:37:40;100183.47;;;-4.38;66.79
64189;BME280;50493;50.970;10.082;2022-12-17T07:40:26;100184.03;;;-3.93;64.52
64189;BME280;50493;50.970;10.082;2022-12-17T07:43:10;100197.19;;;-5.63;71.97
64189;BME280;50493;50.970;10.082;2022-12-17T07:45:54;100201.25;;;-4.89;70.95
64189;BME280;50493;50.970;10.082;2022-12-17T07:48:38;100210.66;;;-5.03;69.92
64189;BME280;50493;50.970;10.082;2022-12-17T07:51:22;100219.75;;;-4.77;69.12
64189;BME280;50493;50.970;10.082;2022-12-17T07:54:06;100219.38;;;-4.99;69.70
64189;BME280;50493;50.970;10.082;2022-12-17T07:56:51;100216.22;;;-4.79;69.01
64189;BME280;50493;50.970;10.082;2022-12-17T07:59:35;100219.44;;;-4.17;66.96
64189;BME280;50493;50.970;10.082;2022-12-17T08:02:20;100222.38;;;-3.75;64.95
64189;BME280;50493;50.970;10.082;2022-12-17T08:05:04;100238.19;;;-4.16;66.00
64189;BME280;50493;50.970;10.082;2022-12-17T08:07:48;100230.88;;;-3.92;65.32
64189;BME280;50493;50.970;10.082;2022-12-17T08:10:33;100235.78;;;-4.46;66.93
64189;BME280;50493;50.970;10.082;2022-12-17T08:13:18;100245.84;;;-4.16;66.20
64189;BME280;50493;50.970;10.082;2022-12-17T08:16:02;100248.63;;;-3.95;65.13
64189;BME280;50493;50.970;10.082;2022-12-17T08:18:46;100250.34;;;-3.78;64.77
64189;BME280;50493;50.970;10.082;2022-12-17T08:21:30;100249.38;;;-3.63;62.93
64189;BME280;50493;50.970;10.082;2022-12-17T08:24:14;100249.66;;;-3.57;63.77
64189;BME280;50493;50.970;10.082;2022-12-17T08:26:58;100251.28;;;-3.23;62.19
64189;BME280;50493;50.970;10.082;2022-12-17T08:29:44;100255.56;;;-3.58;62.97
64189;BME280;50493;50.970;10.082;2022-12-17T08:32:27;100260.41;;;-3.46;62.74
64189;BME280;50493;50.970;10.082;2022-12-17T08:35:12;100272.84;;;-3.71;62.98
64189;BME280;50493;50.970;10.082;2022-12-17T08:38:00;100272.38;;;-3.80;64.05
64189;BME280;50493;50.970;10.082;2022-12-17T08:40:45;100272.97;;;-3.51;62.90
64189;BME280;50493;50.970;10.082;2022-12-17T08:43:29;100280.03;;;-3.63;63.65
64189;BME280;50493;50.970;10.082;2022-12-17T08:46:15;100279.19;;;-3.46;61.62
64189;BME280;50493;50.970;10.082;2022-12-17T08:48:59;100281.53;;;-2.96;60.35
64189;BME280;50493;50.970;10.082;2022-12-17T08:51:43;100287.34;;;-3.53;62.23
64189;BME280;50493;50.970;10.082;2022-12-17T08:54:27;100287.84;;;-3.60;63.08
64189;BME280;50493;50.970;10.082;2022-12-17T08:57:11;100282.28;;;-3.70;63.03
64189;BME280;50493;50.970;10.082;2022-12-17T08:59:55;100289.00;;;-3.88;64.75
64189;BME280;50493;50.970;10.082;2022-12-17T09:02:40;100288.53;;;-3.81;64.12
64189;BME280;50493;50.970;10.082;2022-12-17T09:05:35;100289.16;;;-3.69;63.82
64189;BME280;50493;50.970;10.082;2022-12-17T09:08:19;100291.91;;;-3.98;65.22
64189;BME280;50493;50.970;10.082;2022-12-17T09:11:04;100296.97;;;-3.65;64.43
64189;BME280;50493;50.970;10.082;2022-12-17T09:13:48;100296.81;;;-3.69;64.35
64189;BME280;50493;50.970;10.082;2022-12-17T09:16:32;100295.84;;;-3.36;62.90
64189;BME280;50493;50.970;10.082;2022-12-17T09:19:17;100299.88;;;-4.09;64.46
64189;BME280;50493;50.970;10.082;2022-12-17T09:22:02;100301.28;;;-3.64;63.10
64189;BME280;50493;50.970;10.082;2022-12-17T09:24:46;100302.97;;;-3.65;63.27
64189;BME280;50493;50.970;10.082;2022-12-17T09:27:30;100304.28;;;-3.55;61.67
64189;BME280;50493;50.970;10.082;2022-12-17T09:30:14;100314.59;;;-4.84;69.19
64189;BME280;50493;50.970;10.082;2022-12-17T09:32:58;100308.50;;;-4.07;65.45
64189;BME280;50493;50.970;10.082;2022-12-17T09:35:43;100311.53;;;-3.81;63.67
64189;BME280;50493;50.970;10.082;2022-12-17T09:38:27;100317.53;;;-3.62;62.24
64189;BME280;50493;50.970;10.082;2022-12-17T09:41:17;100327.66;;;-3.98;64.32
64189;BME280;50493;50.970;10.082;2022-12-17T09:44:07;100323.97;;;-4.20;66.74
64189;BME280;50493;50.970;10.082;2022-12-17T09:47:00;100328.97;;;-4.70;68.89
64189;BME280;50493;50.970;10.082;2022-12-17T09:49:45;100324.75;;;-4.21;66.98
64189;BME280;50493;50.970;10.082;2022-12-17T09:52:34;100320.22;;;-3.94;65.87
64189;BME280;50493;50.970;10.082;2022-12-17T09:55:22;100317.59;;;-3.95;65.95
64189;BME280;50493;50.970;10.082;2022-12-17T09:58:17;100330.81;;;-3.70;65.16
64189;BME280;50493;50.970;10.082;2022-12-17T10:01:01;100329.00;;;-3.72;65.36
64189;BME280;50493;50.970;10.082;2022-12-17T10:03:46;100329.56;;;-4.11;66.43
64189;BME280;50493;50.970;10.082;2022-12-17T10:06:51;100322.47;;;-3.83;65.63
64189;BME280;50493;50.970;10.082;2022-12-17T10:09:36;100327.94;;;-3.59;64.00
64189;BME280;50493;50.970;10.082;2022-12-17T10:12:20;100331.94;;;-4.30;66.80
64189;BME280;50493;50.970;10.082;2022-12-17T10:15:05;100331.03;;;-4.47;68.57
64189;BME280;50493;50.970;10.082;2022-12-17T10:17:49;100327.31;;;-4.05;66.38
64189;BME280;50493;50.970;10.082;2022-12-17T10:20:35;100324.81;;;-4.84;65.90
64189;BME280;50493;50.970;10.082;2022-12-17T10:23:24;100330.09;;;-5.56;71.40
64189;BME280;50493;50.970;10.082;2022-12-17T10:26:15;100332.91;;;-5.51;70.57
64189;BME280;50493;50.970;10.082;2022-12-17T10:29:04;100330.81;;;-4.98;70.45
64189;BME280;50493;50.970;10.082;2022-12-17T10:31:49;100332.84;;;-5.38;71.90
64189;BME280;50493;50.970;10.082;2022-12-17T10:34:35;100334.59;;;-4.60;69.53
64189;BME280;50493;50.970;10.082;2022-12-17T10:37:21;100336.81;;;-4.35;68.89
64189;BME280;50493;50.970;10.082;2022-12-17T10:40:19;100336.91;;;-4.17;67.72
64189;BME280;50493;50.970;10.082;2022-12-17T10:45:59;100332.22;;;-3.42;63.79
64189;BME280;50493;50.970;10.082;2022-12-17T10:48:43;100331.34;;;-3.42;63.04
64189;BME280;50493;50.970;10.082;2022-12-17T10:51:30;100339.22;;;-3.89;65.95
64189;BME280;50493;50.970;10.082;2022-12-17T10:54:22;100329.13;;;-3.53;64.85
64189;BME280;50493;50.970;10.082;2022-12-17T10:57:08;100329.63;;;-3.25;63.35
64189;BME280;50493;50.970;10.082;2022-12-17T11:00:14;100330.34;;;-3.28;63.70
64189;BME280;50493;50.970;10.082;2022-12-17T11:02:59;100337.63;;;-2.83;59.43
64189;BME280;50493;50.970;10.082;2022-12-17T11:05:44;100332.22;;;-2.71;60.43
64189;BME280;50493;50.970;10.082;2022-12-17T11:08:30;100334.22;;;-2.08;57.58
64189;BME280;50493;50.970;10.082;2022-12-17T11:11:14;100340.16;;;-2.65;58.97
64189;BME280;50493;50.970;10.082;2022-12-17T11:14:00;100339.66;;;-3.12;60.55
64189;BME280;50493;50.970;10.082;2022-12-17T11:16:50;100339.09;;;-2.33;58.65
64189;BME280;50493;50.970;10.082;2022-12-17T11:19:41;100346.78;;;-3.57;61.67
64189;BME280;50493;50.970;10.082;2022-12-17T11:22:32;100355.53;;;-5.27;69.22
64189;BME280;50493;50.970;10.082;2022-12-17T11:25:28;100351.19;;;-3.71;63.93
64189;BME280;50493;50.970;10.082;2022-12-17T11:28:19;100347.78;;;-3.37;61.10
64189;BME280;50493;50.970;10.082;2022-12-17T11:31:21;100341.50;;;-2.91;60.32
64189;BME280;50493;50.970;10.082;2022-12-17T11:34:12;100346.31;;;-2.97;61.83
64189;BME280;50493;50.970;10.082;2022-12-17T11:37:03;100342.22;;;-2.94;61.29
64189;BME280;50493;50.970;10.082;2022-12-17T11:39:56;100340.38;;;-2.42;58.19
64189;BME280;50493;50.970;10.082;2022-12-17T11:42:47;100349.00;;;-3.12;61.92
64189;BME280;50493;50.970;10.082;2022-12-17T11:45:38;100353.75;;;-3.71;61.39
64189;BME280;50493;50.970;10.082;2022-12-17T11:48:31;100353.44;;;-3.26;62.93
64189;BME280;50493;50.970;10.082;2022-12-17T11:51:24;100357.16;;;-3.38;64.32
64189;BME280;50493;50.970;10.082;2022-12-17T11:54:14;100349.38;;;-3.05;62.91
64189;BME280;50493;50.970;10.082;2022-12-17T11:57:07;100351.50;;;-2.42;59.00
64189;BME280;50493;50.970;10.082;2022-12-17T12:00:00;100351.97;;;-2.69;58.71
64189;BME280;50493;50.970;10.082;2022-12-17T12:02:52;100365.72;;;-4.51;63.90
64189;BME280;50493;50.970;10.082;2022-12-17T12:05:45;100364.91;;;-3.86;63.75
64189;BME280;50493;50.970;10.082;2022-12-17T12:08:32;100368.16;;;-5.29;68.17
64189;BME280;50493;50.970;10.082;2022-12-17T12:11:25;100356.00;;;-4.88;69.81
64189;BME280;50493;50.970;10.082;2022-12-17T12:14:21;100357.66;;;-4.74;66.93
64189;BME280;50493;50.970;10.082;2022-12-17T12:17:20;100350.78;;;-3.79;66.81
64189;BME280;50493;50.970;10.082;2022-12-17T12:20:10;100354.56;;;-3.21;62.49
64189;BME280;50493;50.970;10.082;2022-12-17T12:23:04;100347.94;;;-2.63;59.59
64189;BME280;50493;50.970;10.082;2022-12-17T12:26:00;100356.66;;;-3.30;60.33
64189;BME280;50493;50.970;10.082;2022-12-17T12:28:56;100360.38;;;-4.08;65.86
64189;BME280;50493;50.970;10.082;2022-12-17T12:31:49;100350.69;;;-3.64;61.81
64189;BME280;50493;50.970;10.082;2022-12-17T12:34:36;100361.13;;;-5.03;68.95
64189;BME280;50493;50.970;10.082;2022-12-17T12:37:21;100351.66;;;-4.11;64.98
64189;BME280;50493;50.970;10.082;2022-12-17T12:40:11;100363.22;;;-3.52;63.72
64189;BME280;50493;50.970;10.082;2022-12-17T12:43:01;100362.06;;;-4.40;65.97
64189;BME280;50493;50.970;10.082;2022-12-17T12:45:51;100368.91;;;-5.75;70.04
64189;BME280;50493;50.970;10.082;2022-12-17T12:48:41;100366.47;;;-4.68;66.34
64189;BME280;50493;50.970;10.082;2022-12-17T12:51:29;100369.94;;;-4.04;65.74
64189;BME280;50493;50.970;10.082;2022-12-17T12:54:26;100369.53;;;-3.95;67.19
64189;BME280;50493;50.970;10.082;2022-12-17T12:57:27;100377.38;;;-3.75;67.28
64189;BME280;50493;50.970;10.082;2022-12-17T13:00:28;100373.66;;;-4.61;65.47
64189;BME280;50493;50.970;10.082;2022-12-17T13:03:23;100375.13;;;-4.19;66.03
64189;BME280;50493;50.970;10.082;2022-12-17T13:06:09;100373.56;;;-4.31;64.55
64189;BME280;50493;50.970;10.082;2022-12-17T13:08:35;100372.31;;;-4.23;65.90
64189;BME280;50493;50.970;10.082;2022-12-17T13:11:26;100368.88;;;-4.24;65.85
64189;BME280;50493;50.970;10.082;2022-12-17T13:13:53;100377.34;;;-4.56;66.17
64189;BME280;50493;50.970;10.082;2022-12-17T13:16:40;100373.66;;;-4.61;66.28
64189;BME280;50493;50.970;10.082;2022-12-17T13:19:30;100375.63;;;-4.87;68.21
64189;BME280;50493;50.970;10.082;2022-12-17T13:21:56;100378.34;;;-4.38;65.82
64189;BME280;50493;50.970;10.082;2022-12-17T13:24:23;100379.88;;;-3.77;66.77
64189;BME280;50493;50.970;10.082;2022-12-17T13:26:50;100369.38;;;-3.14;61.31
64189;BME280;50493;50.970;10.082;2022-12-17T13:29:22;100369.84;;;-2.87;60.78
64189;BME280;50493;50.970;10.082;2022-12-17T13:32:07;100372.91;;;-3.12;60.15
64189;BME280;50493;50.970;10.082;2022-12-17T13:34:48;100379.38;;;-3.53;63.53
64189;BME280;50493;50.970;10.082;2022-12-17T13:37:25;100390.25;;;-4.99;67.55
64189;BME280;50493;50.970;10.082;2022-12-17T13:40:00;100389.56;;;-4.19;68.06
64189;BME280;50493;50.970;10.082;2022-12-17T13:42:29;100390.56;;;-3.67;67.50
64189;BME280;50493;50.970;10.082;2022-12-17T13:44:56;100385.66;;;-3.46;62.03
64189;BME280;50493;50.970;10.082;2022-12-17T13:47:23;100384.81;;;-3.63;64.62
64189;BME280;50493;50.970;10.082;2022-12-17T13:49:52;100373.88;;;-3.61;63.66
64189;BME280;50493;50.970;10.082;2022-12-17T13:52:20;100378.19;;;-3.43;64.63
64189;BME280;50493;50.970;10.082;2022-12-17T13:54:46;100378.34;;;-3.57;66.70
64189;BME280;50493;50.970;10.082;2022-12-17T13:57:13;100372.84;;;-3.64;67.24
64189;BME280;50493;50.970;10.082;2022-12-17T13:59:39;100379.13;;;-3.58;67.79
64189;BME280;50493;50.970;10.082;2022-12-17T14:02:04;100384.16;;;-3.92;68.59
64189;BME280;50493;50.970;10.082;2022-12-17T14:04:30;100386.78;;;-3.91;68.44
64189;BME280;50493;50.970;10.082;2022-12-17T14:06:58;100392.88;;;-3.72;67.53
64189;BME280;50493;50.970;10.082;2022-12-17T14:09:29;100397.03;;;-3.74;67.59
64189;BME280;50493;50.970;10.082;2022-12-17T14:11:56;100402.88;;;-3.60;67.35
64189;BME280;50493;50.970;10.082;2022-12-17T14:14:43;100398.63;;;-3.60;67.27
64189;BME280;50493;50.970;10.082;2022-12-17T14:17:16;100399.75;;;-3.55;67.47